Rehovot, Israel
Current Conditions -  °F | °C
As of 8:50 AM on Sunday 26 Oct 2014 (Local Time) from LLBG Reporting Station
Clear Clear  
Wind Chill: 73°   Ceiling: Unl
Heat Index: 73°   Visibility: 6mi
Dew Point: 48°   Wind: 2mph
Humidity: 41%   Direction: NA
Pressure: 30"   Gusts: NA
Location:  31.89°N, 34.8°E
Report Text: LLBG 260550Z VRB02KT CAVOK 23/09 Q1016 NOSIG
Loading
Personal Weather Stations






























Interactive Weather Map
Tropical Storm Tracking
New forecast layout! Learn more

10-Day Weather Forecast

Advertisements
Track Severe Weather on mobile